Time;durP1;ratioP1;P1;durP2;ratioP2;P2;SDS_P1;SDS_P2;PMS_P1;PMS_P2;Temp;Humidity;BMP_temperature;BMP_pressure;BME280_temperature;BME280_humidity;BME280_pressure;Samples;Min_cycle;Max_cycle;Signal;HPM_P1;HPM_P2
2021/05/08 00:01:12;;;;;;;3.47;1.73;;;18.60;93.20;;;;;;5060964;28;20222;-68
2021/05/08 00:03:38;;;;;;;6.47;1.93;;;18.50;93.20;;;;;;5059408;28;20738;-66
2021/05/08 00:06:08;;;;;;;5.43;2.00;;;18.50;93.20;;;;;;5059433;28;20218;-67
2021/05/08 00:08:35;;;;;;;6.60;1.57;;;18.50;93.00;;;;;;5062838;28;20194;-67
2021/05/08 00:11:02;;;;;;;5.93;1.80;;;18.50;93.10;;;;;;5060914;28;20201;-67
2021/05/08 00:13:33;;;;;;;5.80;1.47;;;18.60;92.70;;;;;;5061868;28;20659;-67
2021/05/08 00:16:02;;;;;;;5.77;1.60;;;18.60;92.70;;;;;;5062196;28;20190;-66
2021/05/08 00:18:28;;;;;;;4.87;1.50;;;18.70;92.30;;;;;;5064407;28;20191;-63
2021/05/08 00:20:54;;;;;;;9.33;1.80;;;18.70;92.40;;;;;;5057677;28;20183;-67
2021/05/08 00:23:21;;;;;;;4.37;1.60;;;18.70;92.30;;;;;;5062799;28;20180;-66
2021/05/08 00:25:47;;;;;;;5.50;1.73;;;18.80;92.40;;;;;;5059997;28;20555;-64
2021/05/08 00:28:13;;;;;;;6.60;1.80;;;18.80;92.60;;;;;;5057902;28;20588;-63
2021/05/08 00:30:39;;;;;;;8.43;2.00;;;18.80;92.80;;;;;;5067281;28;20278;-63
2021/05/08 00:33:06;;;;;;;13.60;1.90;;;18.80;92.80;;;;;;5057836;28;20874;-70
2021/05/08 00:35:33;;;;;;;5.87;1.77;;;18.80;92.80;;;;;;5062486;28;20202;-70
2021/05/08 00:38:00;;;;;;;4.60;2.00;;;18.80;93.30;;;;;;5063544;28;20536;-69
2021/05/08 00:40:26;;;;;;;7.87;1.90;;;18.80;93.40;;;;;;5065578;28;20256;-68
2021/05/08 00:42:52;;;;;;;8.67;2.33;;;18.90;93.30;;;;;;5066445;28;20261;-67
2021/05/08 00:45:19;;;;;;;7.40;1.83;;;18.90;93.50;;;;;;5043333;28;20186;-67
2021/05/08 00:47:48;;;;;;;11.30;2.30;;;18.90;93.30;;;;;;5064400;28;20235;-67
2021/05/08 00:50:22;;;;;;;14.47;2.50;;;19.00;93.30;;;;;;5065083;28;20183;-68
2021/05/08 00:52:50;;;;;;;4.57;2.13;;;19.00;93.70;;;;;;5060194;28;20213;-69
2021/05/08 00:55:16;;;;;;;11.67;2.00;;;18.80;93.30;;;;;;5063934;28;20188;-67
2021/05/08 00:57:42;;;;;;;8.37;2.17;;;18.90;93.60;;;;;;5058724;28;20562;-67
2021/05/08 01:00:11;;;;;;;9.43;2.10;;;19.00;92.90;;;;;;5062386;28;20191;-66
2021/05/08 01:02:41;;;;;;;5.20;2.20;;;19.10;92.80;;;;;;5065290;28;20203;-66
2021/05/08 01:05:08;;;;;;;6.90;2.10;;;19.20;93.10;;;;;;5062533;28;20218;-66
2021/05/08 01:07:42;;;;;;;5.13;2.10;;;19.00;93.40;;;;;;5064399;28;20241;-66
2021/05/08 01:10:15;;;;;;;6.97;2.23;;;18.90;93.70;;;;;;5058413;28;20652;-66
2021/05/08 01:12:48;;;;;;;9.50;2.50;;;18.80;94.00;;;;;;5064194;28;20194;-65
2021/05/08 01:15:23;;;;;;;5.77;1.93;;;18.70;93.90;;;;;;5064059;28;20609;-64
2021/05/08 01:17:50;;;;;;;8.73;2.13;;;18.70;93.90;;;;;;5062478;28;20198;-65
2021/05/08 01:20:21;;;;;;;17.50;2.23;;;18.80;93.90;;;;;;5062889;28;20653;-65
2021/05/08 01:22:51;;;;;;;6.97;2.20;;;18.90;93.60;;;;;;5059133;28;20204;-65
2021/05/08 01:25:27;;;;;;;4.77;1.80;;;18.90;93.60;;;;;;5067702;28;20213;-66
2021/05/08 01:27:59;;;;;;;11.20;2.33;;;18.80;93.70;;;;;;5063016;28;20190;-66
2021/05/08 01:30:31;;;;;;;9.87;2.43;;;18.80;93.80;;;;;;5067078;28;20187;-66
2021/05/08 01:32:58;;;;;;;5.53;2.07;;;18.70;93.90;;;;;;5064766;28;20186;-65
2021/05/08 01:35:27;;;;;;;15.10;2.30;;;18.80;94.00;;;;;;5062115;28;20194;-65
2021/05/08 01:37:54;;;;;;;13.57;2.30;;;18.80;94.00;;;;;;5064641;28;20194;-65
2021/05/08 01:40:31;;;;;;;5.47;2.07;;;18.80;93.80;;;;;;5061721;28;20266;-66
2021/05/08 01:42:58;;;;;;;5.50;2.33;;;18.90;93.60;;;;;;5062114;28;20246;-66
2021/05/08 01:45:25;;;;;;;12.43;2.40;;;18.90;93.70;;;;;;5066149;28;20196;-63
2021/05/08 01:47:52;;;;;;;11.30;2.40;;;18.90;94.00;;;;;;5066380;28;20175;-67
2021/05/08 01:50:25;;;;;;;11.13;2.50;;;18.80;94.10;;;;;;5060983;28;20706;-67
2021/05/08 01:52:52;;;;;;;5.00;1.93;;;18.70;93.90;;;;;;5063036;28;20239;-67
2021/05/08 01:55:26;;;;;;;10.13;2.40;;;18.60;94.30;;;;;;5062757;28;20195;-67
2021/05/08 01:57:58;;;;;;;8.60;2.00;;;18.50;94.40;;;;;;5063303;28;20236;-66
2021/05/08 02:00:34;;;;;;;7.27;2.20;;;18.60;93.90;;;;;;5065830;28;20249;-68
2021/05/08 02:03:04;;;;;;;9.83;2.30;;;18.70;93.60;;;;;;5061261;28;20537;-68
2021/05/08 02:05:34;;;;;;;5.23;2.10;;;18.60;93.90;;;;;;5064258;28;20849;-67
2021/05/08 02:08:04;;;;;;;8.13;2.37;;;18.70;93.70;;;;;;5064244;28;20206;-66
2021/05/08 02:10:34;;;;;;;9.83;2.50;;;18.80;93.50;;;;;;5066274;28;20567;-66
2021/05/08 02:13:06;;;;;;;4.97;2.07;;;18.70;93.50;;;;;;5066586;28;20194;-65
2021/05/08 02:15:34;;;;;;;10.53;2.40;;;18.70;93.50;;;;;;5060245;28;20199;-67
2021/05/08 02:18:00;;;;;;;8.43;2.30;;;18.70;93.40;;;;;;5064416;28;20199;-67
2021/05/08 02:20:42;;;;;;;9.67;2.40;;;18.70;93.40;;;;;;5064890;28;20191;-66
2021/05/08 02:23:13;;;;;;;12.67;2.67;;;18.70;93.40;;;;;;5063555;28;20198;-67
2021/05/08 02:25:40;;;;;;;8.93;2.17;;;18.70;93.40;;;;;;5060419;28;20195;-66
2021/05/08 02:28:08;;;;;;;9.07;2.37;;;18.70;93.30;;;;;;5064018;28;20333;-67
2021/05/08 02:30:38;;;;;;;13.93;2.30;;;18.70;93.40;;;;;;5061619;28;20182;-67
2021/05/08 02:33:05;;;;;;;17.73;2.77;;;18.70;93.40;;;;;;5060569;28;20559;-66
2021/05/08 02:35:33;;;;;;;11.63;2.33;;;18.80;93.30;;;;;;5061521;28;20218;-68
2021/05/08 02:37:59;;;;;;;9.17;2.33;;;18.70;93.40;;;;;;5075751;28;20191;-66
2021/05/08 02:40:30;;;;;;;7.47;2.03;;;18.60;93.50;;;;;;5058852;28;20187;-68
2021/05/08 02:42:57;;;;;;;6.33;2.00;;;18.80;93.30;;;;;;5060498;28;20345;-67
2021/05/08 02:45:24;;;;;;;6.33;2.13;;;18.90;93.40;;;;;;5063428;28;20190;-67
2021/05/08 02:47:51;;;;;;;6.73;2.20;;;18.70;93.70;;;;;;5059974;28;20313;-65
2021/05/08 02:50:21;;;;;;;7.37;2.17;;;18.70;93.70;;;;;;5067260;28;20223;-64
2021/05/08 02:52:47;;;;;;;8.93;2.33;;;18.80;93.40;;;;;;5061096;28;20233;-64
2021/05/08 02:55:16;;;;;;;7.33;2.17;;;18.90;93.00;;;;;;5062348;28;20549;-66
2021/05/08 02:57:42;;;;;;;6.23;2.07;;;19.00;92.90;;;;;;5062231;28;20178;-65
2021/05/08 03:00:13;;;;;;;12.17;2.20;;;19.10;92.70;;;;;;5063307;28;20211;-67
2021/05/08 03:02:40;;;;;;;9.03;2.07;;;19.10;92.50;;;;;;5060839;28;20734;-68
2021/05/08 03:05:08;;;;;;;8.97;2.43;;;19.20;92.50;;;;;;5063158;28;20882;-66
2021/05/08 03:07:35;;;;;;;9.27;2.43;;;19.10;92.80;;;;;;5064426;28;20179;-66
2021/05/08 03:10:06;;;;;;;8.30;2.30;;;19.00;92.90;;;;;;5059156;28;21043;-67
2021/05/08 03:12:33;;;;;;;5.87;2.30;;;19.00;92.70;;;;;;5062986;28;20187;-65
2021/05/08 03:14:59;;;;;;;7.07;2.50;;;19.00;92.80;;;;;;5062328;28;20179;-69
2021/05/08 03:17:25;;;;;;;13.33;2.60;;;19.00;92.70;;;;;;5056664;28;20198;-69
2021/05/08 03:19:52;;;;;;;8.80;2.43;;;19.00;92.80;;;;;;5055283;28;20184;-66
2021/05/08 03:22:18;;;;;;;7.33;2.87;;;19.00;93.10;;;;;;5066310;28;20206;-65
2021/05/08 03:24:44;;;;;;;5.83;1.90;;;19.00;93.20;;;;;;5062342;28;20182;-66
2021/05/08 03:27:10;;;;;;;8.93;2.50;;;19.00;93.40;;;;;;5058059;28;20686;-66
2021/05/08 03:29:37;;;;;;;10.73;1.97;;;19.00;93.50;;;;;;5062908;28;20240;-67
2021/05/08 03:32:04;;;;;;;4.03;1.83;;;19.00;93.70;;;;;;5062816;28;20179;-66
2021/05/08 03:34:30;;;;;;;5.47;2.27;;;19.00;94.00;;;;;;5060693;28;20658;-66
2021/05/08 03:36:57;;;;;;;8.97;2.43;;;19.00;93.90;;;;;;5056224;28;20213;-66
2021/05/08 03:39:23;;;;;;;11.13;3.17;;;19.00;94.30;;;;;;5060332;28;20191;-66
2021/05/08 03:41:49;;;;;;;13.07;2.33;;;19.00;93.80;;;;;;5060546;28;20207;-66
2021/05/08 03:44:15;;;;;;;10.83;2.50;;;19.20;93.90;;;;;;5064351;28;20214;-65
2021/05/08 03:46:42;;;;;;;7.57;2.13;;;19.30;94.10;;;;;;5063798;28;20179;-65
2021/05/08 03:49:08;;;;;;;10.23;2.37;;;19.30;94.20;;;;;;5063407;28;20202;-66
2021/05/08 03:51:34;;;;;;;8.70;1.93;;;19.30;94.00;;;;;;5060322;28;20225;-68
2021/05/08 03:54:01;;;;;;;9.00;2.30;;;19.40;94.10;;;;;;5041763;28;20244;-66
2021/05/08 03:56:27;;;;;;;6.37;2.20;;;19.40;94.10;;;;;;5065823;28;20857;-65
2021/05/08 03:58:53;;;;;;;5.07;1.77;;;19.50;94.20;;;;;;5057639;28;20186;-65
2021/05/08 04:01:19;;;;;;;8.20;2.63;;;19.50;94.10;;;;;;5060742;28;20206;-67
2021/05/08 04:03:46;;;;;;;7.57;2.27;;;19.60;95.40;;;;;;5066689;28;20182;-67
2021/05/08 04:06:12;;;;;;;10.50;2.30;;;19.60;95.20;;;;;;5079392;28;20274;-68
2021/05/08 04:08:38;;;;;;;6.77;2.20;;;19.60;95.40;;;;;;5067917;28;20247;-64
2021/05/08 04:11:04;;;;;;;9.83;2.33;;;19.60;95.20;;;;;;5062035;28;20588;-65
2021/05/08 04:13:31;;;;;;;7.40;2.10;;;19.60;96.40;;;;;;5045661;28;20570;-65
2021/05/08 04:15:57;;;;;;;6.47;1.93;;;19.50;97.30;;;;;;5069528;28;20190;-66
2021/05/08 04:18:23;;;;;;;7.23;2.17;;;19.40;98.00;;;;;;5068777;28;20187;-65
2021/05/08 04:20:49;;;;;;;7.80;2.13;;;19.40;98.10;;;;;;5062043;28;20324;-65
2021/05/08 04:23:16;;;;;;;8.60;2.70;;;19.30;98.20;;;;;;5068883;28;20187;-69
2021/05/08 04:25:42;;;;;;;7.43;2.30;;;19.40;97.90;;;;;;5065493;28;20195;-65
2021/05/08 04:28:10;;;;;;;8.00;2.47;;;19.30;98.30;;;;;;5066387;28;20181;-70
2021/05/08 04:30:37;;;;;;;9.83;2.47;;;19.30;98.60;;;;;;5062299;28;20308;-65
2021/05/08 04:33:04;;;;;;;8.17;2.43;;;19.30;99.40;;;;;;5066048;28;20191;-66
2021/05/08 04:35:31;;;;;;;9.97;2.63;;;19.30;99.70;;;;;;5066247;28;20206;-64
2021/05/08 04:38:06;;;;;;;8.07;2.33;;;19.40;99.70;;;;;;5066206;28;20202;-67
2021/05/08 04:40:32;;;;;;;5.87;2.13;;;19.60;99.60;;;;;;5065129;28;20189;-67
2021/05/08 04:42:59;;;;;;;8.30;2.20;;;19.60;99.90;;;;;;5063124;28;20302;-66
2021/05/08 04:45:26;;;;;;;8.13;1.90;;;19.60;99.90;;;;;;5063253;28;20204;-67
2021/05/08 04:47:55;;;;;;;9.03;1.80;;;19.90;99.90;;;;;;5065165;28;20186;-64
2021/05/08 04:50:23;;;;;;;5.87;2.20;;;20.30;99.30;;;;;;5065731;28;20188;-66
2021/05/08 04:52:50;;;;;;;9.43;2.50;;;20.50;99.00;;;;;;5065078;28;20209;-66
2021/05/08 04:55:17;;;;;;;11.50;2.50;;;20.70;97.60;;;;;;5068417;28;20183;-65
2021/05/08 04:57:43;;;;;;;4.87;2.13;;;20.90;95.60;;;;;;5064239;28;20198;-64
2021/05/08 05:00:15;;;;;;;9.10;2.47;;;21.00;95.60;;;;;;5064712;28;20221;-64
2021/05/08 05:02:43;;;;;;;10.07;2.23;;;20.90;96.80;;;;;;5065100;28;20215;-64
2021/05/08 05:05:12;;;;;;;9.30;2.47;;;20.80;97.60;;;;;;5079428;28;20190;-63
2021/05/08 05:07:43;;;;;;;9.93;2.50;;;20.70;97.80;;;;;;5065421;28;20630;-67
2021/05/08 05:10:11;;;;;;;9.07;2.30;;;20.70;97.50;;;;;;5079682;28;20266;-66
2021/05/08 05:12:38;;;;;;;8.67;2.33;;;20.80;97.40;;;;;;5068937;28;20187;-68
2021/05/08 05:15:06;;;;;;;9.57;2.30;;;20.80;97.80;;;;;;5059408;28;20238;-68
2021/05/08 05:17:32;;;;;;;11.70;2.50;;;20.80;98.30;;;;;;5067676;28;20282;-67
2021/05/08 05:19:58;;;;;;;8.37;2.30;;;21.00;96.50;;;;;;5061210;28;20217;-66
2021/05/08 05:22:25;;;;;;;6.40;2.30;;;21.10;97.20;;;;;;5063694;28;20218;-66
2021/05/08 05:24:52;;;;;;;8.30;2.03;;;21.10;97.80;;;;;;5065945;28;20229;-66
2021/05/08 05:27:18;;;;;;;9.23;2.40;;;21.20;97.80;;;;;;5061051;28;20248;-66
2021/05/08 05:29:45;;;;;;;9.23;2.50;;;21.30;98.50;;;;;;5064280;28;20218;-67
2021/05/08 05:32:11;;;;;;;10.20;2.60;;;21.30;98.90;;;;;;5064531;28;20241;-67
2021/05/08 05:34:39;;;;;;;14.93;2.87;;;21.30;99.20;;;;;;5065540;28;20239;-68
2021/05/08 05:37:06;;;;;;;12.10;2.67;;;21.30;98.90;;;;;;5076298;28;20694;-69
2021/05/08 05:39:32;;;;;;;6.87;1.80;;;21.30;99.70;;;;;;5063683;28;20204;-63
2021/05/08 05:41:58;;;;;;;8.37;2.43;;;21.30;99.60;;;;;;5064662;28;20223;-67
2021/05/08 05:44:25;;;;;;;9.83;2.57;;;21.30;98.60;;;;;;5064883;28;20248;-66
2021/05/08 05:46:52;;;;;;;15.10;2.50;;;21.40;98.60;;;;;;5066064;28;20199;-67
2021/05/08 05:49:18;;;;;;;10.93;2.13;;;21.40;98.60;;;;;;5066664;28;20175;-68
2021/05/08 05:51:45;;;;;;;6.87;2.20;;;21.50;97.20;;;;;;5065109;28;20203;-65
2021/05/08 05:54:11;;;;;;;8.07;2.47;;;21.50;97.50;;;;;;5067004;28;20190;-68
2021/05/08 05:56:37;;;;;;;7.97;2.03;;;21.50;97.40;;;;;;5063884;28;20218;-66
2021/05/08 05:59:03;;;;;;;10.80;2.30;;;21.70;97.00;;;;;;5082462;28;20259;-66
2021/05/08 06:01:30;;;;;;;9.87;2.20;;;22.00;96.10;;;;;;5064582;28;20611;-67
2021/05/08 06:03:56;;;;;;;11.40;2.50;;;22.20;95.70;;;;;;5066263;28;20191;-67
2021/05/08 06:06:22;;;;;;;5.47;2.20;;;22.40;95.10;;;;;;5061332;28;20241;-64
2021/05/08 06:08:49;;;;;;;8.90;2.20;;;22.50;94.40;;;;;;5064857;28;20210;-65
2021/05/08 06:11:15;;;;;;;11.33;2.30;;;22.50;93.30;;;;;;5065530;28;20286;-64
2021/05/08 06:13:41;;;;;;;8.60;2.20;;;22.50;93.10;;;;;;5064230;28;20237;-66
2021/05/08 06:16:08;;;;;;;12.30;2.03;;;22.50;93.60;;;;;;5065479;28;20210;-67
2021/05/08 06:18:35;;;;;;;9.63;2.40;;;22.50;93.50;;;;;;5063858;28;20337;-67
2021/05/08 06:21:02;;;;;;;8.37;2.40;;;22.60;93.60;;;;;;5048135;28;20922;-68
2021/05/08 06:23:29;;;;;;;9.07;2.30;;;22.80;93.40;;;;;;5063068;28;20297;-67
2021/05/08 06:25:56;;;;;;;7.37;2.33;;;23.00;93.10;;;;;;5056664;28;20199;-67
2021/05/08 06:28:22;;;;;;;15.77;2.50;;;23.10;93.60;;;;;;5058585;28;20577;-67
2021/05/08 06:30:48;;;;;;;11.87;2.47;;;23.20;94.40;;;;;;5056000;28;20187;-66
2021/05/08 06:33:15;;;;;;;9.00;2.40;;;23.20;94.10;;;;;;5063206;28;20823;-70
2021/05/08 06:35:41;;;;;;;13.23;2.70;;;23.20;94.40;;;;;;5049030;28;20248;-69
2021/05/08 06:38:09;;;;;;;12.73;2.60;;;23.20;94.70;;;;;;5077505;28;20194;-67
2021/05/08 06:40:36;;;;;;;11.80;2.30;;;23.30;94.70;;;;;;5044425;28;20187;-67
2021/05/08 06:43:02;;;;;;;12.20;2.73;;;23.30;94.40;;;;;;5061437;28;20220;-70
2021/05/08 06:45:28;;;;;;;7.67;2.20;;;23.30;93.60;;;;;;5076695;28;20236;-66
2021/05/08 06:47:59;;;;;;;6.97;2.73;;;23.30;93.60;;;;;;5059575;28;20194;-65
2021/05/08 06:50:26;;;;;;;11.53;2.97;;;23.30;93.40;;;;;;5062433;28;20274;-67
2021/05/08 06:52:53;;;;;;;7.53;2.50;;;23.30;93.60;;;;;;5066032;28;20252;-67
2021/05/08 06:55:20;;;;;;;6.10;2.10;;;23.40;94.10;;;;;;5063559;28;20190;-67
2021/05/08 06:57:49;;;;;;;10.77;2.40;;;23.40;93.90;;;;;;5063369;28;20194;-66
2021/05/08 07:00:19;;;;;;;7.63;2.20;;;23.50;93.60;;;;;;5064980;28;20198;-65
2021/05/08 07:02:45;;;;;;;8.93;2.00;;;23.60;93.30;;;;;;5064860;28;20218;-65
2021/05/08 07:05:12;;;;;;;8.13;2.93;;;23.60;93.10;;;;;;5079256;28;20274;-66
2021/05/08 07:07:38;;;;;;;6.70;1.90;;;23.70;91.70;;;;;;5059626;28;20229;-68
2021/05/08 07:10:06;;;;;;;8.13;2.20;;;23.80;91.10;;;;;;5063339;28;20608;-64
2021/05/08 07:12:32;;;;;;;12.00;2.47;;;23.90;91.10;;;;;;5045814;28;20235;-65
2021/05/08 07:14:59;;;;;;;10.80;2.10;;;23.90;91.20;;;;;;5064045;28;20608;-67
2021/05/08 07:17:26;;;;;;;7.03;1.63;;;24.00;90.30;;;;;;5061433;28;20264;-65
2021/05/08 07:19:52;;;;;;;6.90;2.30;;;24.00;90.00;;;;;;5060006;28;20202;-67
2021/05/08 07:22:19;;;;;;;9.47;2.00;;;24.10;90.40;;;;;;5062090;28;20210;-66
2021/05/08 07:24:46;;;;;;;11.33;2.50;;;24.30;90.50;;;;;;5077933;28;20187;-67
2021/05/08 07:27:12;;;;;;;7.67;2.37;;;24.30;90.40;;;;;;5059601;28;20606;-64
2021/05/08 07:29:39;;;;;;;9.40;2.70;;;24.30;90.30;;;;;;5064300;28;20732;-65
2021/05/08 07:32:06;;;;;;;8.60;2.47;;;24.30;90.70;;;;;;5059752;28;20190;-66
2021/05/08 07:34:32;;;;;;;7.77;2.60;;;24.30;91.30;;;;;;5059385;28;20189;-65
2021/05/08 07:36:58;;;;;;;10.80;2.57;;;24.40;90.50;;;;;;5063438;28;20211;-66
2021/05/08 07:39:25;;;;;;;8.70;2.37;;;24.50;91.10;;;;;;5060127;28;20203;-67
2021/05/08 07:41:51;;;;;;;8.07;2.60;;;24.60;91.10;;;;;;5063668;28;20576;-65
2021/05/08 07:44:17;;;;;;;11.50;2.60;;;24.60;91.40;;;;;;5065766;28;20183;-69
2021/05/08 07:46:44;;;;;;;16.43;2.33;;;24.60;91.40;;;;;;5061332;28;20194;-69
2021/05/08 07:49:10;;;;;;;7.93;2.27;;;24.50;92.60;;;;;;5064507;28;20194;-66
2021/05/08 07:51:37;;;;;;;8.27;2.10;;;24.60;92.50;;;;;;5062790;28;20213;-65
2021/05/08 07:54:06;;;;;;;6.60;2.07;;;24.60;92.30;;;;;;5062610;28;20209;-66
2021/05/08 07:56:38;;;;;;;13.30;2.20;;;24.60;92.10;;;;;;5063061;28;20210;-69
2021/05/08 07:59:05;;;;;;;18.17;2.70;;;24.80;91.90;;;;;;5079550;28;20225;-67
2021/05/08 08:01:32;;;;;;;8.07;2.50;;;24.80;91.30;;;;;;5062915;28;20301;-67
2021/05/08 08:03:58;;;;;;;7.93;2.40;;;24.90;91.80;;;;;;5064597;28;20198;-66
2021/05/08 08:06:24;;;;;;;8.97;1.90;;;24.80;91.80;;;;;;5058471;28;20202;-67
2021/05/08 08:08:50;;;;;;;9.13;2.33;;;24.90;91.90;;;;;;5060048;28;20187;-70
2021/05/08 08:11:17;;;;;;;11.73;2.53;;;24.90;91.90;;;;;;5060959;28;20194;-67
2021/05/08 08:13:43;;;;;;;9.30;2.37;;;24.90;92.40;;;;;;5057886;28;20647;-67
2021/05/08 08:16:09;;;;;;;9.83;2.40;;;24.90;92.80;;;;;;5058724;28;20199;-65
2021/05/08 08:18:36;;;;;;;8.83;2.30;;;24.80;93.00;;;;;;5060396;28;20849;-65
2021/05/08 08:21:04;;;;;;;11.07;2.30;;;24.90;93.70;;;;;;5063231;28;20182;-66
2021/05/08 08:23:30;;;;;;;16.02;2.35;;;24.90;92.70;;;;;;5072440;28;20257;-68
2021/05/08 08:25:56;;;;;;;6.07;2.20;;;25.00;93.40;;;;;;5064524;28;20199;-67
2021/05/08 08:28:23;;;;;;;7.43;2.30;;;25.10;94.00;;;;;;5076966;28;20192;-67
2021/05/08 08:30:49;;;;;;;8.63;2.40;;;25.10;94.80;;;;;;5056036;28;20842;-66
2021/05/08 08:33:16;;;;;;;12.57;2.57;;;25.20;94.40;;;;;;5063011;28;20255;-69
2021/05/08 08:35:42;;;;;;;9.97;2.77;;;25.20;93.90;;;;;;5060030;28;20306;-67
2021/05/08 08:38:09;;;;;;;9.15;2.20;;;25.30;93.30;;;;;;5058594;28;20252;-68
2021/05/08 08:40:36;;;;;;;6.57;2.35;;;25.40;94.00;;;;;;5074662;28;20242;-66
2021/05/08 08:43:03;;;;;;;10.15;2.28;;;25.50;94.10;;;;;;5061616;28;20260;-67
2021/05/08 08:45:30;;;;;;;10.50;2.50;;;25.40;93.70;;;;;;5058964;28;21052;-69
2021/05/08 08:47:57;;;;;;;14.65;2.38;;;25.40;93.20;;;;;;5064012;28;20268;-68
2021/05/08 08:50:26;;;;;;;6.40;2.03;;;25.30;93.70;;;;;;5059492;28;20647;-65
2021/05/08 08:52:52;;;;;;;8.33;2.33;;;25.30;92.90;;;;;;5064257;28;20359;-65
2021/05/08 08:55:19;;;;;;;7.10;2.60;;;25.40;92.60;;;;;;5068277;28;20190;-64
2021/05/08 08:57:48;;;;;;;13.37;2.57;;;25.50;92.00;;;;;;5065621;28;20735;-65
2021/05/08 09:00:18;;;;;;;10.07;2.10;;;25.60;92.50;;;;;;5046703;28;20232;-64
2021/05/08 09:02:48;;;;;;;11.63;2.58;;;25.60;93.10;;;;;;5065483;28;20215;-69
2021/05/08 09:05:23;;;;;;;9.88;2.22;;;25.60;93.40;;;;;;5068766;28;20644;-69
2021/05/08 09:07:51;;;;;;;7.03;2.20;;;25.60;91.70;;;;;;5061182;28;21013;-69
2021/05/08 09:10:27;;;;;;;13.73;2.30;;;25.60;92.70;;;;;;5065680;28;20214;-66
2021/05/08 09:12:57;;;;;;;5.22;2.33;;;25.80;92.80;;;;;;5064289;28;20213;-67
2021/05/08 09:15:32;;;;;;;6.47;2.15;;;25.90;91.90;;;;;;5060638;28;20194;-67
2021/05/08 09:18:00;;;;;;;17.95;2.65;;;26.00;91.10;;;;;;5065208;28;20202;-66
2021/05/08 09:20:48;;;;;;;8.02;2.15;;;26.10;90.90;;;;;;5065537;28;20718;-66
2021/05/08 09:23:30;;;;;;;9.40;2.45;;;26.30;90.30;;;;;;5065394;28;20215;-67
2021/05/08 09:26:08;;;;;;;13.27;2.40;;;26.60;89.50;;;;;;5067895;28;20196;-67
2021/05/08 09:28:38;;;;;;;7.47;2.58;;;26.70;89.20;;;;;;5065157;28;20213;-67
2021/05/08 09:31:08;;;;;;;10.75;2.17;;;26.90;87.00;;;;;;5066483;28;20680;-67
2021/05/08 09:33:34;;;;;;;6.85;2.40;;;26.80;89.90;;;;;;5067739;28;20223;-67
2021/05/08 09:36:11;;;;;;;7.57;2.63;;;27.10;90.10;;;;;;5061457;28;20233;-65
2021/05/08 09:38:43;;;;;;;8.43;2.65;;;27.20;90.70;;;;;;5067868;28;20593;-65
2021/05/08 09:41:15;;;;;;;8.43;2.40;;;27.30;91.80;;;;;;5066219;28;20259;-67
2021/05/08 09:43:43;;;;;;;9.20;2.85;;;27.30;92.00;;;;;;5067172;28;20516;-65
2021/05/08 09:46:24;;;;;;;9.07;2.65;;;27.50;92.60;;;;;;5063678;28;20586;-66
2021/05/08 09:49:10;;;;;;;10.95;2.83;;;27.80;91.50;;;;;;5064926;28;20183;-65
2021/05/08 09:51:36;;;;;;;11.00;2.92;;;28.00;92.80;;;;;;5062862;28;20198;-66
2021/05/08 09:54:14;;;;;;;15.00;3.10;;;27.70;91.50;;;;;;5063384;28;20225;-66
2021/05/08 09:56:46;;;;;;;14.40;2.60;;;27.80;92.30;;;;;;5066800;28;20202;-69
2021/05/08 09:59:30;;;;;;;10.35;2.50;;;27.90;92.30;;;;;;5066901;28;20663;-64
2021/05/08 10:02:02;;;;;;;14.73;2.40;;;28.10;91.40;;;;;;5065399;28;20238;-67
2021/05/08 10:04:44;;;;;;;11.77;3.03;;;28.40;90.20;;;;;;5067731;28;20178;-68
2021/05/08 10:07:32;;;;;;;9.23;2.72;;;28.20;90.90;;;;;;5066391;28;20187;-67
2021/05/08 10:10:00;;;;;;;9.30;2.60;;;28.40;90.10;;;;;;5063767;28;20194;-67
2021/05/08 10:12:29;;;;;;;11.30;2.50;;;28.40;90.70;;;;;;5063885;28;20737;-66
2021/05/08 10:14:58;;;;;;;12.52;2.50;;;28.40;90.10;;;;;;5060534;28;20184;-64
2021/05/08 10:17:29;;;;;;;6.72;2.88;;;28.40;90.30;;;;;;5060438;28;20270;-67
2021/05/08 10:20:06;;;;;;;10.65;2.83;;;28.60;90.20;;;;;;5063027;28;20236;-66
2021/05/08 10:22:59;;;;;;;7.72;2.70;;;28.50;89.40;;;;;;5059424;28;20591;-67
2021/05/08 10:25:27;;;;;;;7.93;2.58;;;28.70;90.40;;;;;;5064608;28;20182;-65
2021/05/08 10:27:54;;;;;;;15.13;3.13;;;28.90;91.40;;;;;;5060995;28;20210;-64
2021/05/08 10:30:36;;;;;;;14.23;2.67;;;29.10;91.20;;;;;;5059139;28;20314;-67
2021/05/08 10:33:18;;;;;;;6.78;2.47;;;29.00;90.90;;;;;;5058655;28;20237;-67
2021/05/08 10:35:51;;;;;;;9.13;2.90;;;28.90;91.10;;;;;;5076403;28;20203;-64
2021/05/08 10:38:35;;;;;;;9.55;2.95;;;29.00;91.60;;;;;;5066665;28;20709;-64
2021/05/08 10:41:12;;;;;;;5.65;2.53;;;28.80;91.60;;;;;;5061541;28;20268;-63
2021/05/08 10:43:54;;;;;;;9.30;2.95;;;28.50;91.20;;;;;;5061477;28;20194;-67
2021/05/08 10:46:27;;;;;;;11.68;2.90;;;28.60;91.50;;;;;;5061280;28;20335;-64
2021/05/08 10:49:09;;;;;;;5.80;2.20;;;28.80;90.80;;;;;;5058811;28;20186;-66
2021/05/08 10:51:57;;;;;;;8.10;2.58;;;28.90;91.30;;;;;;5053842;28;20746;-67
2021/05/08 10:54:56;;;;;;;13.70;2.67;;;29.20;91.10;;;;;;5058821;28;20186;-65
2021/05/08 10:57:26;;;;;;;13.10;2.67;;;29.20;90.50;;;;;;5047537;28;20922;-67
2021/05/08 11:00:08;;;;;;;9.85;2.88;;;29.10;90.00;;;;;;5064050;28;20231;-65
2021/05/08 11:02:43;;;;;;;11.82;2.88;;;29.20;90.40;;;;;;5074279;28;20294;-69
2021/05/08 11:05:26;;;;;;;7.72;2.53;;;29.00;90.90;;;;;;5062927;28;20193;-66
2021/05/08 11:07:53;;;;;;;17.95;3.03;;;28.80;91.30;;;;;;5063940;28;22492;-65
2021/05/08 11:10:37;;;;;;;8.85;2.58;;;28.90;91.60;;;;;;5060392;28;20273;-67
2021/05/08 11:13:17;;;;;;;11.68;2.90;;;28.80;92.30;;;;;;5063262;28;21036;-68
2021/05/08 11:15:56;;;;;;;8.82;2.50;;;28.60;91.50;;;;;;5062647;28;20190;-65
2021/05/08 11:18:34;;;;;;;11.13;2.65;;;28.40;90.90;;;;;;5060088;28;20570;-67
2021/05/08 11:21:12;;;;;;;14.88;3.00;;;28.30;91.10;;;;;;5060357;28;20198;-66
2021/05/08 11:23:54;;;;;;;11.90;2.85;;;28.10;90.90;;;;;;5059284;28;20537;-65
2021/05/08 11:26:25;;;;;;;6.80;2.40;;;28.00;91.20;;;;;;5063686;28;20182;-66
2021/05/08 11:29:27;;;;;;;5.25;2.30;;;27.90;91.00;;;;;;5059335;28;20724;-67
2021/05/08 11:32:04;;;;;;;10.30;2.58;;;27.80;91.00;;;;;;5061293;28;20194;-65
2021/05/08 11:34:32;;;;;;;12.63;2.70;;;27.80;91.80;;;;;;5063086;28;20602;-66
2021/05/08 11:37:11;;;;;;;11.20;3.22;;;28.00;91.20;;;;;;5064047;28;20217;-66
2021/05/08 11:39:46;;;;;;;10.32;2.80;;;28.00;90.50;;;;;;5062557;28;20202;-68
2021/05/08 11:42:23;;;;;;;8.55;2.35;;;28.00;90.80;;;;;;5059864;28;20205;-65
2021/05/08 11:45:00;;;;;;;12.13;2.78;;;27.80;91.20;;;;;;5077010;28;20217;-65
2021/05/08 11:47:30;;;;;;;10.02;2.95;;;27.90;90.30;;;;;;5057727;28;20234;-67
2021/05/08 11:50:11;;;;;;;7.07;2.92;;;27.40;89.50;;;;;;5063675;28;20535;-65
2021/05/08 11:52:51;;;;;;;13.00;2.97;;;27.50;90.50;;;;;;5061730;28;20199;-66
2021/05/08 11:55:21;;;;;;;15.68;2.97;;;27.40;91.80;;;;;;5060009;28;20265;-66
2021/05/08 11:58:00;;;;;;;11.35;2.78;;;27.40;91.90;;;;;;5062251;28;20247;-69
2021/05/08 12:00:32;;;;;;;10.40;2.42;;;27.20;92.20;;;;;;5046883;28;20194;-67
2021/05/08 12:03:16;;;;;;;11.20;2.35;;;27.10;91.80;;;;;;5058496;28;20207;-66
2021/05/08 12:05:45;;;;;;;11.18;3.20;;;26.90;91.40;;;;;;5061669;28;20182;-69
2021/05/08 12:08:14;;;;;;;9.40;3.13;;;26.90;89.20;;;;;;5060080;28;20260;-66
2021/05/08 12:10:43;;;;;;;10.05;3.08;;;26.80;90.40;;;;;;5060053;28;20206;-68
2021/05/08 12:13:10;;;;;;;9.27;2.88;;;26.70;90.70;;;;;;5063290;28;20190;-70
2021/05/08 12:15:38;;;;;;;15.88;3.30;;;26.10;90.60;;;;;;5064145;28;20182;-67
2021/05/08 12:18:11;;;;;;;17.52;4.20;;;26.00;92.00;;;;;;5070681;28;20342;-68
2021/05/08 12:20:48;;;;;;;11.23;2.90;;;26.00;91.30;;;;;;5061431;28;20195;-66
2021/05/08 12:23:23;;;;;;;15.00;3.83;;;25.80;91.30;;;;;;5061814;28;20218;-70
2021/05/08 12:26:15;;;;;;;12.35;3.35;;;25.80;90.10;;;;;;5061521;28;20189;-66
2021/05/08 12:28:44;;;;;;;15.18;3.58;;;25.90;90.00;;;;;;5061569;28;20246;-65
2021/05/08 12:31:32;;;;;;;18.45;3.60;;;25.90;91.20;;;;;;5065613;28;20237;-70
2021/05/08 12:34:14;;;;;;;37.03;5.93;;;25.70;92.30;;;;;;5065738;28;20312;-66
2021/05/08 12:36:41;;;;;;;58.13;5.70;;;25.80;92.80;;;;;;5069409;28;20256;-67
2021/05/08 12:39:25;;;;;;;15.50;3.55;;;25.80;95.80;;;;;;5067504;28;20187;-66
2021/05/08 12:41:57;;;;;;;13.23;3.17;;;25.80;97.90;;;;;;5061270;28;20273;-70
2021/05/08 12:44:39;;;;;;;17.55;3.65;;;25.90;99.00;;;;;;5066646;28;20190;-68
2021/05/08 12:50:13;;;;;;;12.23;2.95;;;26.20;99.20;;;;;;5065657;28;20174;-66
2021/05/08 12:53:01;;;;;;;12.15;3.22;;;26.30;99.00;;;;;;5066103;28;20239;-67
2021/05/08 12:55:36;;;;;;;7.15;2.70;;;26.40;99.00;;;;;;5082182;28;20281;-67
2021/05/08 12:58:14;;;;;;;29.80;5.25;;;26.40;99.00;;;;;;5064316;28;20643;-66
2021/05/08 13:00:51;;;;;;;10.55;3.30;;;26.50;98.70;;;;;;5063474;28;20672;-65